createdAt,value
2018-04-27T00:00:08.200Z,1000.67
2018-04-27T00:01:08.188Z,1000.68
2018-04-27T00:02:08.176Z,1000.65
2018-04-27T00:03:08.172Z,1000.66
2018-04-27T00:04:08.195Z,1000.65
2018-04-27T00:05:08.161Z,1000.64
2018-04-27T00:06:08.125Z,1000.65
2018-04-27T00:07:08.132Z,1000.63
2018-04-27T00:08:08.100Z,1000.60
2018-04-27T00:09:08.095Z,1000.60
2018-04-27T00:10:08.118Z,1000.64
2018-04-27T00:11:08.070Z,1000.61
2018-04-27T00:12:08.052Z,1000.58
2018-04-27T00:13:08.041Z,1000.61
2018-04-27T00:14:08.024Z,1000.58
2018-04-27T00:15:08.012Z,1000.59
2018-04-27T00:16:08.000Z,1000.58
2018-04-27T00:17:07.986Z,1000.57
2018-04-27T00:18:07.973Z,1000.58
2018-04-27T00:19:07.964Z,1000.56
2018-04-27T00:20:07.961Z,1000.54
2018-04-27T00:21:07.981Z,1000.55
2018-04-27T00:22:07.933Z,1000.55
2018-04-27T00:23:07.910Z,1000.54
2018-04-27T00:24:07.909Z,1000.50
2018-04-27T00:25:07.888Z,1000.53
2018-04-27T00:26:07.874Z,1000.55
2018-04-27T00:27:07.893Z,1000.51
2018-04-27T00:28:07.849Z,1000.51
2018-04-27T00:29:07.834Z,1000.52
2018-04-27T00:30:07.824Z,1000.54
2018-04-27T00:31:07.808Z,1000.53
2018-04-27T00:32:07.795Z,1000.49
2018-04-27T00:33:07.784Z,1000.50
2018-04-27T00:34:07.770Z,1000.51
2018-04-27T00:35:07.757Z,1000.51
2018-04-27T00:36:07.745Z,1000.50
2018-04-27T00:37:07.750Z,1000.50
2018-04-27T00:38:07.779Z,1000.45
2018-04-27T00:39:07.729Z,1000.46
2018-04-27T00:40:07.696Z,1000.45
2018-04-27T00:41:07.712Z,1000.45
2018-04-27T00:42:07.669Z,1000.44
2018-04-27T00:43:07.666Z,1000.45
2018-04-27T00:44:07.877Z,1000.38
2018-04-27T00:45:07.641Z,1000.37
2018-04-27T00:46:07.618Z,1000.39
2018-04-27T00:47:07.625Z,1000.35
2018-04-27T00:48:07.594Z,1000.36
2018-04-27T00:49:07.581Z,1000.37
2018-04-27T00:50:07.568Z,1000.33
2018-04-27T00:51:07.555Z,1000.32
2018-04-27T00:52:07.542Z,1000.30
2018-04-27T00:53:07.531Z,1000.30
2018-04-27T00:54:07.544Z,1000.28
2018-04-27T00:55:07.503Z,1000.24
2018-04-27T00:56:07.516Z,1000.26
2018-04-27T00:57:07.479Z,1000.24
2018-04-27T00:58:07.465Z,1000.24
2018-04-27T00:59:07.453Z,1000.25
2018-04-27T01:00:07.461Z,1000.25
2018-04-27T01:01:07.428Z,1000.25
2018-04-27T01:02:07.436Z,1000.26
2018-04-27T01:03:07.405Z,1000.25
2018-04-27T01:04:07.390Z,1000.21
2018-04-27T01:05:07.378Z,1000.24
2018-04-27T01:06:07.364Z,1000.22
2018-04-27T01:07:07.352Z,1000.21
2018-04-27T01:08:07.339Z,1000.18
2018-04-27T01:09:07.327Z,1000.20
2018-04-27T01:10:07.313Z,1000.21
2018-04-27T01:11:07.341Z,1000.21
2018-04-27T01:12:07.289Z,1000.23
2018-04-27T01:13:07.319Z,1000.19
2018-04-27T01:14:07.268Z,1000.18
2018-04-27T01:15:07.251Z,1000.18
2018-04-27T01:16:07.244Z,1000.16
2018-04-27T01:17:07.241Z,1000.16
2018-04-27T01:18:07.213Z,1000.15
2018-04-27T01:19:07.213Z,1000.15
2018-04-27T01:20:07.194Z,1000.11
2018-04-27T01:21:07.175Z,1000.14
2018-04-27T01:22:07.162Z,1000.15
2018-04-27T01:23:07.150Z,1000.12
2018-04-27T01:24:07.137Z,1000.15
2018-04-27T01:25:07.125Z,1000.16
2018-04-27T01:26:07.116Z,1000.16
2018-04-27T01:27:07.098Z,1000.11
2018-04-27T01:28:07.119Z,1000.13
2018-04-27T01:29:07.073Z,1000.11
2018-04-27T01:30:07.099Z,1000.12
2018-04-27T01:31:07.046Z,1000.12
2018-04-27T01:32:07.037Z,1000.13
2018-04-27T01:34:07.038Z,1000.11
2018-04-27T01:35:06.995Z,1000.10
2018-04-27T01:36:07.015Z,1000.08
2018-04-27T01:37:06.969Z,1000.14
2018-04-27T01:38:06.957Z,1000.10
2018-04-27T01:39:06.944Z,1000.08
2018-04-27T01:40:06.931Z,1000.09
2018-04-27T01:41:06.919Z,1000.07
2018-04-27T01:42:06.905Z,1000.08
2018-04-27T01:43:06.895Z,1000.06
2018-04-27T01:44:06.890Z,1000.05
2018-04-27T01:45:06.908Z,1000.03
2018-04-27T01:46:06.864Z,1000.07
2018-04-27T01:47:06.842Z,1000.05
2018-04-27T01:48:06.843Z,1000.02
2018-04-27T01:49:06.826Z,1000.01
2018-04-27T01:50:06.803Z,999.98
2018-04-27T01:51:06.825Z,999.97
2018-04-27T01:52:06.781Z,999.96
2018-04-27T01:53:06.765Z,999.94
2018-04-27T01:54:06.752Z,999.97
2018-04-27T01:55:06.740Z,999.93
2018-04-27T01:56:06.727Z,999.91
2018-04-27T01:57:06.715Z,999.86
2018-04-27T01:58:06.707Z,999.87
2018-04-27T01:59:06.690Z,999.90
2018-04-27T02:00:06.676Z,999.85
2018-04-27T02:01:06.663Z,999.83
2018-04-27T02:02:06.879Z,999.81
2018-04-27T02:03:06.660Z,999.81
2018-04-27T02:04:06.628Z,999.78
2018-04-27T02:05:06.640Z,999.77
2018-04-27T02:06:06.598Z,999.72
2018-04-27T02:07:06.596Z,999.74
2018-04-27T02:08:06.626Z,999.70
2018-04-27T02:09:06.570Z,999.67
2018-04-27T02:10:06.546Z,999.63
2018-04-27T02:11:06.551Z,999.66
2018-04-27T02:12:06.521Z,999.63
2018-04-27T02:13:06.509Z,999.63
2018-04-27T02:14:06.495Z,999.61
2018-04-27T02:15:06.482Z,999.61
2018-04-27T02:16:06.470Z,999.61
2018-04-27T02:17:06.470Z,999.59
2018-04-27T02:18:06.489Z,999.57
2018-04-27T02:19:06.451Z,999.53
2018-04-27T02:20:06.422Z,999.55
2018-04-27T02:21:06.419Z,999.52
2018-04-27T02:22:06.392Z,999.54
2018-04-27T02:23:06.389Z,999.58
2018-04-27T02:24:06.408Z,999.59
2018-04-27T02:25:06.363Z,999.59
2018-04-27T02:26:06.341Z,999.55
2018-04-27T02:27:06.337Z,999.54
2018-04-27T02:28:06.316Z,999.50
2018-04-27T02:29:06.303Z,999.55
2018-04-27T02:30:06.291Z,999.53
2018-04-27T02:31:06.277Z,999.56
2018-04-27T02:32:06.267Z,999.54
2018-04-27T02:33:06.253Z,999.57
2018-04-27T02:34:06.259Z,999.56
2018-04-27T02:35:06.263Z,999.56
2018-04-27T02:36:06.241Z,999.55
2018-04-27T02:37:06.201Z,999.57
2018-04-27T02:38:06.225Z,999.53
2018-04-27T02:39:06.177Z,999.57
2018-04-27T02:40:06.183Z,999.58
2018-04-27T02:41:06.189Z,999.55
2018-04-27T02:42:06.153Z,999.49
2018-04-27T02:43:06.123Z,999.53
2018-04-27T02:44:06.134Z,999.48
2018-04-27T02:45:06.099Z,999.48
2018-04-27T02:46:06.086Z,999.48
2018-04-27T02:47:06.072Z,999.49
2018-04-27T02:48:06.079Z,999.50
2018-04-27T02:49:06.050Z,999.48
2018-04-27T02:50:06.034Z,999.46
2018-04-27T02:51:06.052Z,999.45
2018-04-27T02:52:06.012Z,999.40
2018-04-27T02:53:06.028Z,999.40
2018-04-27T02:54:05.984Z,999.42
2018-04-27T02:55:05.971Z,999.40
2018-04-27T02:56:05.964Z,999.39
2018-04-27T02:57:05.973Z,999.34
2018-04-27T02:58:05.935Z,999.36
2018-04-27T02:59:05.950Z,999.35
2018-04-27T03:00:05.909Z,999.29
2018-04-27T03:01:05.895Z,999.29
2018-04-27T03:02:05.881Z,999.26
2018-04-27T03:03:05.869Z,999.25
2018-04-27T03:04:05.856Z,999.24
2018-04-27T03:05:05.844Z,999.21
2018-04-27T03:06:05.833Z,999.19
2018-04-27T03:07:05.818Z,999.20
2018-04-27T03:08:05.845Z,999.19
2018-04-27T03:09:05.803Z,999.19
2018-04-27T03:10:06.009Z,999.17
2018-04-27T03:11:05.778Z,999.14
2018-04-27T03:12:05.753Z,999.16
2018-04-27T03:13:05.792Z,999.12
2018-04-27T03:14:05.727Z,999.14
2018-04-27T03:15:05.714Z,999.11
2018-04-27T03:16:05.746Z,999.10
2018-04-27T03:17:05.696Z,999.10
2018-04-27T03:18:05.676Z,999.08
2018-04-27T03:19:05.677Z,999.09
2018-04-27T03:20:05.650Z,999.10
2018-04-27T03:21:05.640Z,999.06
2018-04-27T03:22:05.624Z,999.09
2018-04-27T03:23:05.614Z,999.06
2018-04-27T03:24:05.612Z,999.05
2018-04-27T03:25:05.632Z,999.06
2018-04-27T03:26:05.596Z,999.02
2018-04-27T03:27:05.561Z,999.06
2018-04-27T03:28:05.568Z,999.03
2018-04-27T03:29:05.535Z,999.01
2018-04-27T03:30:05.537Z,999.00
2018-04-27T03:31:05.561Z,998.97
2018-04-27T03:32:05.512Z,998.97
2018-04-27T03:33:05.484Z,998.95
2018-04-27T03:34:05.486Z,998.94
2018-04-27T03:35:05.458Z,998.95
2018-04-27T03:36:05.446Z,998.92
2018-04-27T03:37:05.433Z,998.92
2018-04-27T03:38:05.420Z,998.92
2018-04-27T03:39:05.410Z,998.90
2018-04-27T03:40:05.398Z,998.88
2018-04-27T03:41:05.381Z,998.91
2018-04-27T03:42:05.367Z,998.92
2018-04-27T03:43:05.399Z,998.85
2018-04-27T03:44:05.349Z,998.84
2018-04-27T03:45:05.379Z,998.80
2018-04-27T03:46:05.315Z,998.81
2018-04-27T03:47:05.311Z,998.79
2018-04-27T03:48:05.289Z,998.80
2018-04-27T03:49:05.480Z,998.73
2018-04-27T03:50:05.263Z,998.71
2018-04-27T03:51:05.259Z,998.72
2018-04-27T03:52:05.238Z,998.70
2018-04-27T03:53:05.225Z,998.68
2018-04-27T03:54:05.211Z,998.67
2018-04-27T03:55:05.203Z,998.70
2018-04-27T03:56:05.189Z,998.66
2018-04-27T03:57:05.200Z,998.65
2018-04-27T03:58:05.160Z,998.64
2018-04-27T03:59:05.161Z,998.62
2018-04-27T04:00:05.135Z,998.60
2018-04-27T04:01:05.150Z,998.58
2018-04-27T04:02:05.109Z,998.55
2018-04-27T04:03:05.099Z,998.54
2018-04-27T04:04:05.083Z,998.49
2018-04-27T04:05:05.071Z,998.50
2018-04-27T04:06:05.083Z,998.48
2018-04-27T04:07:05.122Z,998.49
2018-04-27T04:08:05.067Z,998.44
2018-04-27T04:09:05.019Z,998.42
2018-04-27T04:10:05.231Z,998.37
2018-04-27T04:11:05.043Z,998.40
2018-04-27T04:12:04.994Z,998.42
2018-04-27T04:13:05.217Z,998.37
2018-04-27T04:14:04.953Z,998.42
2018-04-27T04:15:05.084Z,998.36
2018-04-27T04:16:04.927Z,998.35
2018-04-27T04:17:04.920Z,998.33
2018-04-27T04:18:04.944Z,998.32
2018-04-27T04:19:04.889Z,998.32
2018-04-27T04:20:04.964Z,998.31
2018-04-27T04:21:04.863Z,998.31
2018-04-27T04:22:04.849Z,998.26
2018-04-27T04:23:04.842Z,998.27
2018-04-27T04:24:04.823Z,998.30
2018-04-27T04:25:04.811Z,998.29
2018-04-27T04:26:04.811Z,998.29
2018-04-27T04:27:04.792Z,998.27
2018-04-27T04:28:04.775Z,998.24
2018-04-27T04:29:04.764Z,998.24
2018-04-27T04:30:04.745Z,998.26
2018-04-27T04:31:04.736Z,998.23
2018-04-27T04:32:04.720Z,998.18
2018-04-27T04:33:04.708Z,998.20
2018-04-27T04:34:04.698Z,998.18
2018-04-27T04:35:04.680Z,998.16
2018-04-27T04:36:04.669Z,998.16
2018-04-27T04:37:04.688Z,998.13
2018-04-27T04:38:04.641Z,998.11
2018-04-27T04:39:04.636Z,998.09
2018-04-27T04:40:04.616Z,998.06
2018-04-27T04:41:04.603Z,998.08
2018-04-27T04:42:04.655Z,998.10
2018-04-27T04:43:04.588Z,998.08
2018-04-27T04:44:04.565Z,998.08
2018-04-27T04:45:04.641Z,998.07
2018-04-27T04:46:04.537Z,998.07
2018-04-27T04:47:04.527Z,998.04
2018-04-27T04:48:04.513Z,998.05
2018-04-27T04:49:04.573Z,998.04
2018-04-27T04:50:04.511Z,998.04
2018-04-27T04:51:04.486Z,998.05
2018-04-27T04:52:04.461Z,998.04
2018-04-27T04:53:04.453Z,998.05
2018-04-27T04:54:04.436Z,998.00
2018-04-27T04:55:04.482Z,998.02
2018-04-27T04:56:04.433Z,998.00
2018-04-27T04:57:04.397Z,998.05
2018-04-27T04:58:04.384Z,998.01
2018-04-27T04:59:04.372Z,998.02
2018-04-27T05:00:04.359Z,998.06
2018-04-27T05:01:04.347Z,997.98
2018-04-27T05:02:04.352Z,998.00
2018-04-27T05:03:04.393Z,997.99
2018-04-27T05:04:04.309Z,998.02
2018-04-27T05:05:04.298Z,998.03
2018-04-27T05:06:04.288Z,998.03
2018-04-27T05:07:04.325Z,998.03
2018-04-27T05:08:04.272Z,998.04
2018-04-27T05:09:04.249Z,998.08
2018-04-27T05:10:04.235Z,998.04
2018-04-27T05:11:04.223Z,998.02
2018-04-27T05:12:04.237Z,998.01
2018-04-27T05:13:04.257Z,998.04
2018-04-27T05:14:04.187Z,998.04
2018-04-27T05:15:04.175Z,998.03
2018-04-27T05:16:04.169Z,998.03
2018-04-27T05:17:04.166Z,998.02
2018-04-27T05:18:04.142Z,997.99
2018-04-27T05:19:04.130Z,998.00
2018-04-27T05:20:04.115Z,998.01
2018-04-27T05:21:04.105Z,998.02
2018-04-27T05:22:04.293Z,998.02
2018-04-27T05:23:04.079Z,998.01
2018-04-27T05:24:04.071Z,997.98
2018-04-27T05:25:04.055Z,998.04
2018-04-27T05:26:04.042Z,998.03
2018-04-27T05:28:04.040Z,998.04
2018-04-27T05:29:04.012Z,998.00
2018-04-27T05:30:03.995Z,998.01
2018-04-27T05:31:04.016Z,998.01
2018-04-27T05:32:04.174Z,997.96
2018-04-27T05:33:03.989Z,997.97
2018-04-27T05:34:03.950Z,997.94
2018-04-27T05:35:03.935Z,997.99
2018-04-27T05:36:03.924Z,997.99
2018-04-27T05:37:03.913Z,998.01
2018-04-27T05:38:03.902Z,998.02
2018-04-27T05:39:03.888Z,998.06
2018-04-27T05:40:04.081Z,998.03
2018-04-27T05:41:03.870Z,998.01
2018-04-27T05:42:04.063Z,998.03
2018-04-27T05:44:03.875Z,998.03
2018-04-27T05:45:03.822Z,997.97
2018-04-27T05:46:03.809Z,998.00
2018-04-27T05:47:03.798Z,997.96
2018-04-27T05:48:03.786Z,997.93
2018-04-27T05:49:03.845Z,997.96
2018-04-27T05:50:03.772Z,997.94
2018-04-27T05:51:03.753Z,997.96
2018-04-27T05:52:03.742Z,997.96
2018-04-27T05:53:03.731Z,997.95
2018-04-27T05:54:03.719Z,997.95
2018-04-27T05:55:03.708Z,997.96
2018-04-27T05:56:03.904Z,997.94
2018-04-27T05:57:03.699Z,997.93
2018-04-27T05:58:03.676Z,997.95
2018-04-27T05:59:03.670Z,997.91
2018-04-27T06:00:03.656Z,997.90
2018-04-27T06:01:03.647Z,997.90
2018-04-27T06:02:03.643Z,997.84
2018-04-27T06:03:03.621Z,997.85
2018-04-27T06:04:03.623Z,997.83
2018-04-27T06:05:03.609Z,997.81
2018-04-27T06:06:03.590Z,997.79
2018-04-27T06:07:03.580Z,997.73
2018-04-27T06:08:03.570Z,997.71
2018-04-27T06:09:03.764Z,997.69
2018-04-27T06:10:03.642Z,997.71
2018-04-27T06:11:03.565Z,997.66
2018-04-27T06:12:03.531Z,997.65
2018-04-27T06:13:03.517Z,997.67
2018-04-27T06:14:03.510Z,997.71
2018-04-27T06:15:03.527Z,997.66
2018-04-27T06:16:03.566Z,997.66
2018-04-27T06:17:03.475Z,997.67
2018-04-27T06:18:03.469Z,997.66
2018-04-27T06:19:03.497Z,997.68
2018-04-27T06:20:03.444Z,997.68
2018-04-27T06:21:03.435Z,997.70
2018-04-27T06:22:03.430Z,997.72
2018-04-27T06:23:03.443Z,997.63
2018-04-27T06:24:03.406Z,997.66
2018-04-27T06:25:03.395Z,997.68
2018-04-27T06:26:03.388Z,997.71
2018-04-27T06:27:03.375Z,997.68
2018-04-27T06:28:03.450Z,997.66
2018-04-27T06:29:03.373Z,997.68
2018-04-27T06:30:03.346Z,997.63
2018-04-27T06:31:03.336Z,997.66
2018-04-27T06:32:03.329Z,997.64
2018-04-27T06:33:03.402Z,997.59
2018-04-27T06:34:03.312Z,997.60
2018-04-27T06:35:03.300Z,997.57
2018-04-27T06:36:03.291Z,997.59
2018-04-27T06:37:03.280Z,997.58
2018-04-27T06:38:03.339Z,997.57
2018-04-27T06:39:03.268Z,997.54
2018-04-27T06:40:03.252Z,997.56
2018-04-27T06:41:03.243Z,997.52
2018-04-27T06:42:03.473Z,997.55
2018-04-27T06:43:03.229Z,997.54
2018-04-27T06:44:03.216Z,997.52
2018-04-27T06:45:03.207Z,997.48
2018-04-27T06:46:03.199Z,997.44
2018-04-27T06:47:03.244Z,997.48
2018-04-27T06:48:03.219Z,997.44
2018-04-27T06:49:03.176Z,997.42
2018-04-27T06:50:03.163Z,997.41
2018-04-27T06:51:03.162Z,997.39
2018-04-27T06:52:03.360Z,997.38
2018-04-27T06:53:03.185Z,997.40
2018-04-27T06:54:03.129Z,997.36
2018-04-27T06:55:03.125Z,997.36
2018-04-27T06:56:03.114Z,997.35
2018-04-27T06:57:03.206Z,997.36
2018-04-27T06:58:03.097Z,997.31
2018-04-27T06:59:03.103Z,997.29
2018-04-27T07:00:03.142Z,997.30
2018-04-27T07:01:03.077Z,997.30
2018-04-27T07:02:03.279Z,997.28
2018-04-27T07:03:03.106Z,997.34
2018-04-27T07:04:03.133Z,997.31
2018-04-27T07:05:03.051Z,997.29
2018-04-27T07:06:03.033Z,997.28
2018-04-27T07:07:03.034Z,997.26
2018-04-27T07:08:03.019Z,997.30
2018-04-27T07:09:03.020Z,997.26
2018-04-27T07:10:03.111Z,997.28
2018-04-27T07:11:03.068Z,997.26
2018-04-27T07:12:03.075Z,997.26
2018-04-27T07:13:03.948Z,997.25
2018-04-27T07:14:03.097Z,997.20
2018-04-27T07:16:03.049Z,997.18
2018-04-27T07:17:03.143Z,997.19
2018-04-27T07:18:02.948Z,997.22
2018-04-27T07:19:02.971Z,997.20
2018-04-27T07:20:03.694Z,997.20
2018-04-27T07:21:02.981Z,997.22
2018-04-27T07:22:02.975Z,997.24
2018-04-27T07:23:02.997Z,997.23
2018-04-27T07:24:02.979Z,997.12
2018-04-27T07:25:03.229Z,997.16
2018-04-27T07:27:03.007Z,997.14
2018-04-27T07:28:02.948Z,997.13
2018-04-27T07:29:02.981Z,997.13
2018-04-27T07:31:02.967Z,997.15
2018-04-27T07:32:02.974Z,997.15
2018-04-27T07:34:02.952Z,997.16
2018-04-27T07:35:02.947Z,997.13
2018-04-27T07:36:02.971Z,997.14
2018-04-27T07:37:02.968Z,997.17
2018-04-27T07:38:02.910Z,997.13
2018-04-27T07:39:02.923Z,997.15
2018-04-27T07:40:02.952Z,997.16
2018-04-27T07:41:03.154Z,997.11
2018-04-27T07:42:02.940Z,997.16
2018-04-27T07:43:02.885Z,997.08
2018-04-27T07:44:02.912Z,997.07
2018-04-27T07:45:02.893Z,997.08
2018-04-27T07:46:02.952Z,997.10
2018-04-27T07:47:03.101Z,997.09
2018-04-27T07:48:02.900Z,997.04
2018-04-27T07:49:02.950Z,997.02
2018-04-27T07:52:03.520Z,997.01
2018-04-27T07:53:02.891Z,997.03
2018-04-27T07:54:02.958Z,997.04
2018-04-27T07:55:02.930Z,997.03
2018-04-27T07:56:02.993Z,997.05
2018-04-27T07:57:02.884Z,996.97
2018-04-27T08:00:02.898Z,997.00
2018-04-27T08:01:02.930Z,996.98
2018-04-27T08:02:03.137Z,997.00
2018-04-27T08:03:02.902Z,996.99
2018-04-27T08:04:02.904Z,996.95
2018-04-27T08:05:02.929Z,996.95
2018-04-27T08:06:02.930Z,996.90
2018-04-27T08:07:02.958Z,996.92
2018-04-27T08:08:02.917Z,996.93
2018-04-27T08:09:02.877Z,996.88
2018-04-27T08:10:03.138Z,996.84
2018-04-27T08:11:02.936Z,996.87
2018-04-27T08:12:02.990Z,996.83
2018-04-27T08:13:02.942Z,996.84
2018-04-27T08:14:02.944Z,996.85
2018-04-27T08:15:02.938Z,996.86
2018-04-27T08:16:03.215Z,996.81
2018-04-27T08:17:02.915Z,996.79
2018-04-27T08:18:03.097Z,996.72
2018-04-27T08:20:02.899Z,996.74
2018-04-27T08:21:02.906Z,996.74
2018-04-27T08:22:02.949Z,996.74
2018-04-27T08:23:02.918Z,996.73
2018-04-27T08:24:03.140Z,996.76
2018-04-27T08:25:02.991Z,996.77
2018-04-27T08:26:02.948Z,996.79
2018-04-27T08:27:03.180Z,996.78
2018-04-27T08:28:02.960Z,996.79
2018-04-27T08:29:02.963Z,996.76
2018-04-27T08:30:02.949Z,996.78
2018-04-27T08:31:02.984Z,996.74
2018-04-27T08:32:02.949Z,996.73
2018-04-27T08:33:02.960Z,996.72
2018-04-27T08:34:03.173Z,996.72
2018-04-27T08:35:03.228Z,996.71
2018-04-27T08:36:02.978Z,996.70
2018-04-27T08:37:02.932Z,996.69
2018-04-27T08:38:03.011Z,996.69
2018-04-27T08:39:02.979Z,996.68
2018-04-27T08:40:03.207Z,996.70
2018-04-27T08:41:03.000Z,996.75
2018-04-27T08:42:02.990Z,996.78
2018-04-27T08:44:02.925Z,996.81
2018-04-27T08:45:03.020Z,996.79
2018-04-27T08:46:03.062Z,996.76
2018-04-27T08:47:03.013Z,996.76
2018-04-27T08:48:03.033Z,996.74
2018-04-27T08:50:03.027Z,996.68
2018-04-27T08:51:03.045Z,996.71
2018-04-27T08:52:03.042Z,996.73
2018-04-27T08:53:03.064Z,996.67
2018-04-27T08:54:03.006Z,996.62
2018-04-27T08:55:03.065Z,996.60
2018-04-27T08:56:02.986Z,996.57
2018-04-27T08:57:03.242Z,996.58
2018-04-27T08:58:03.037Z,996.54
2018-04-27T08:59:03.052Z,996.50
2018-04-27T09:01:03.088Z,996.48
2018-04-27T09:02:03.048Z,996.39
2018-04-27T09:04:03.040Z,996.42
2018-04-27T09:05:03.047Z,996.39
2018-04-27T09:06:03.059Z,996.44
2018-04-27T09:07:03.062Z,996.45
2018-04-27T09:08:03.052Z,996.46
2018-04-27T09:09:03.223Z,996.48
2018-04-27T09:10:03.244Z,996.48
2018-04-27T09:11:03.149Z,996.43
2018-04-27T09:12:03.083Z,996.39
2018-04-27T09:13:03.091Z,996.37
2018-04-27T09:14:03.050Z,996.36
2018-04-27T09:15:03.248Z,996.36
2018-04-27T09:16:03.041Z,996.34
2018-04-27T09:17:03.263Z,996.28
2018-04-27T09:18:03.097Z,996.18
2018-04-27T09:20:03.125Z,996.17
2018-04-27T09:21:03.030Z,996.18
2018-04-27T09:22:03.077Z,996.22
2018-04-27T09:23:03.135Z,996.22
2018-04-27T09:24:03.095Z,996.21
2018-04-27T09:25:03.092Z,996.16
2018-04-27T09:26:03.072Z,996.15
2018-04-27T09:27:03.129Z,996.14
2018-04-27T09:28:03.121Z,996.12
2018-04-27T09:29:03.152Z,996.14
2018-04-27T09:30:03.149Z,996.21
2018-04-27T09:31:03.167Z,996.23
2018-04-27T09:32:03.130Z,996.21
2018-04-27T09:33:03.125Z,996.18
2018-04-27T09:34:03.145Z,996.17
2018-04-27T09:35:03.105Z,996.14
2018-04-27T09:36:03.122Z,996.14
2018-04-27T09:37:03.107Z,996.09
2018-04-27T09:38:03.081Z,996.05
2018-04-27T09:39:03.150Z,996.05
2018-04-27T09:40:03.133Z,996.00
2018-04-27T09:41:03.166Z,996.05
2018-04-27T09:42:03.272Z,996.06
2018-04-27T09:43:03.150Z,996.06
2018-04-27T09:44:03.083Z,995.94
2018-04-27T09:45:03.151Z,995.95
2018-04-27T09:46:03.224Z,995.97
2018-04-27T09:47:03.370Z,995.95
2018-04-27T09:48:03.146Z,995.95
2018-04-27T09:49:03.187Z,995.94
2018-04-27T09:50:03.125Z,995.88
2018-04-27T09:51:03.167Z,995.88
2018-04-27T09:52:03.161Z,995.85
2018-04-27T09:53:03.171Z,995.88
2018-04-27T09:55:03.149Z,995.82
2018-04-27T09:57:03.182Z,995.80
2018-04-27T09:58:03.228Z,995.77
2018-04-27T09:59:03.167Z,995.71
2018-04-27T10:00:03.218Z,995.71
2018-04-27T10:01:03.241Z,995.67
2018-04-27T10:02:03.236Z,995.67
2018-04-27T10:03:03.187Z,995.65
2018-04-27T10:04:03.238Z,995.64
2018-04-27T10:05:03.225Z,995.67
2018-04-27T10:06:03.233Z,995.67
2018-04-27T10:07:03.242Z,995.68
2018-04-27T10:08:03.213Z,995.63
2018-04-27T10:09:03.333Z,995.68
2018-04-27T10:10:03.217Z,995.68
2018-04-27T10:11:03.267Z,995.64
2018-04-27T10:13:03.454Z,995.69
2018-04-27T10:14:03.257Z,995.68
2018-04-27T10:15:03.596Z,995.66
2018-04-27T10:16:03.269Z,995.67
2018-04-27T10:17:03.264Z,995.67
2018-04-27T10:18:03.467Z,995.52
2018-04-27T10:19:03.268Z,995.60
2018-04-27T10:20:03.259Z,995.61
2018-04-27T10:21:03.256Z,995.45
2018-04-27T10:22:03.263Z,995.35
2018-04-27T10:23:03.259Z,995.32
2018-04-27T10:24:03.230Z,995.30
2018-04-27T10:25:03.283Z,995.30
2018-04-27T10:26:03.356Z,995.26
2018-04-27T10:27:03.274Z,995.24
2018-04-27T10:28:03.327Z,995.24
2018-04-27T10:29:03.282Z,995.23
2018-04-27T10:30:03.267Z,995.19
2018-04-27T10:31:03.408Z,995.16
2018-04-27T10:32:03.268Z,995.23
2018-04-27T10:33:03.276Z,995.23
2018-04-27T10:34:03.286Z,995.17
2018-04-27T10:35:03.282Z,995.24
2018-04-27T10:36:03.287Z,995.19
2018-04-27T10:37:03.343Z,995.25
2018-04-27T10:38:03.277Z,995.19
2018-04-27T10:39:03.289Z,995.17
2018-04-27T10:40:03.369Z,995.14
2018-04-27T10:41:03.337Z,995.10
2018-04-27T10:42:03.311Z,995.16
2018-04-27T10:43:03.369Z,995.12
2018-04-27T10:44:03.293Z,995.14
2018-04-27T10:45:03.289Z,995.12
2018-04-27T10:46:03.371Z,995.03
2018-04-27T10:47:03.474Z,995.02
2018-04-27T10:48:03.393Z,995.01
2018-04-27T10:49:03.293Z,994.99
2018-04-27T10:50:03.290Z,995.02
2018-04-27T10:51:03.347Z,995.10
2018-04-27T10:52:03.299Z,995.09
2018-04-27T10:53:03.316Z,995.10
2018-04-27T10:54:03.295Z,995.12
2018-04-27T10:55:03.362Z,995.04
2018-04-27T10:56:03.404Z,995.10
2018-04-27T10:57:03.375Z,995.07
2018-04-27T10:58:03.345Z,995.08
2018-04-27T10:59:03.360Z,995.04
2018-04-27T11:00:03.359Z,995.02
2018-04-27T11:01:03.341Z,994.95
2018-04-27T11:02:03.315Z,994.92
2018-04-27T11:03:03.315Z,994.88
2018-04-27T11:04:03.352Z,994.87
2018-04-27T11:05:03.332Z,994.85
2018-04-27T11:06:03.353Z,994.78
2018-04-27T11:07:03.376Z,994.72
2018-04-27T11:08:03.359Z,994.75
2018-04-27T11:09:03.322Z,994.74
2018-04-27T11:10:03.335Z,994.70
2018-04-27T11:11:03.670Z,994.62
2018-04-27T11:12:03.620Z,994.61
2018-04-27T11:13:03.390Z,994.58
2018-04-27T11:14:03.351Z,994.60
2018-04-27T11:15:03.323Z,994.56
2018-04-27T11:16:03.372Z,994.55
2018-04-27T11:17:03.383Z,994.56
2018-04-27T11:18:03.359Z,994.53
2018-04-27T11:19:03.375Z,994.50
2018-04-27T11:20:03.349Z,994.44
2018-04-27T11:21:03.552Z,994.39
2018-04-27T11:22:03.341Z,994.42
2018-04-27T11:23:03.369Z,994.39
2018-04-27T11:24:03.389Z,994.37
2018-04-27T11:25:03.320Z,994.38
2018-04-27T11:26:03.415Z,994.38
2018-04-27T11:27:03.340Z,994.33
2018-04-27T11:28:03.337Z,994.29
2018-04-27T11:29:03.414Z,994.24
2018-04-27T11:30:03.384Z,994.20
2018-04-27T11:31:03.401Z,994.18
2018-04-27T11:32:03.360Z,994.21
2018-04-27T11:33:03.419Z,994.14
2018-04-27T11:34:03.389Z,994.07
2018-04-27T11:35:03.429Z,994.08
2018-04-27T11:36:03.410Z,994.04
2018-04-27T11:37:03.396Z,994.01
2018-04-27T11:38:03.452Z,994.04
2018-04-27T11:39:03.448Z,993.98
2018-04-27T11:40:03.451Z,994.01
2018-04-27T11:41:03.429Z,994.03
2018-04-27T11:42:03.442Z,994.06
2018-04-27T11:43:03.479Z,993.94
2018-04-27T11:44:03.429Z,994.02
2018-04-27T11:45:03.464Z,994.01
2018-04-27T11:46:03.467Z,994.01
2018-04-27T11:47:03.519Z,993.97
2018-04-27T11:48:03.472Z,993.95
2018-04-27T11:49:03.460Z,993.84
2018-04-27T11:50:03.536Z,993.79
2018-04-27T11:51:03.515Z,993.78
2018-04-27T11:52:03.587Z,993.74
2018-04-27T11:53:03.526Z,993.71
2018-04-27T11:54:03.509Z,993.73
2018-04-27T11:55:03.465Z,993.67
2018-04-27T11:56:03.523Z,993.59
2018-04-27T11:57:03.564Z,993.60
2018-04-27T11:58:03.529Z,993.57
2018-04-27T11:59:03.503Z,993.62
2018-04-27T12:00:03.529Z,993.63
2018-04-27T12:01:03.781Z,993.58
2018-04-27T12:02:03.760Z,993.50
2018-04-27T12:03:03.535Z,993.53
2018-04-27T12:04:03.583Z,993.45
2018-04-27T12:05:03.550Z,993.37
2018-04-27T12:06:03.538Z,993.38
2018-04-27T12:07:03.541Z,993.31
2018-04-27T12:08:03.596Z,993.27
2018-04-27T12:09:03.619Z,993.26
2018-04-27T12:10:03.610Z,993.18
2018-04-27T12:11:03.572Z,993.20
2018-04-27T12:12:03.639Z,993.17
2018-04-27T12:13:03.651Z,993.08
2018-04-27T12:14:03.604Z,993.07
2018-04-27T12:15:03.676Z,993.08
2018-04-27T12:16:03.638Z,993.00
2018-04-27T12:17:03.705Z,992.98
2018-04-27T12:18:03.644Z,992.96
2018-04-27T12:19:03.866Z,992.95
2018-04-27T12:20:03.680Z,992.90
2018-04-27T12:21:03.678Z,992.83
2018-04-27T12:22:03.650Z,992.84
2018-04-27T12:23:03.677Z,992.97
2018-04-27T12:24:03.670Z,993.02
2018-04-27T12:25:03.676Z,992.96
2018-04-27T12:26:03.675Z,992.94
2018-04-27T12:27:03.945Z,992.95
2018-04-27T12:28:03.719Z,992.94
2018-04-27T12:29:03.749Z,992.95
2018-04-27T12:30:03.947Z,992.93
2018-04-27T12:31:03.767Z,992.89
2018-04-27T12:32:03.667Z,992.86
2018-04-27T12:33:03.768Z,992.89
2018-04-27T12:34:03.769Z,992.90
2018-04-27T12:35:03.774Z,992.92
2018-04-27T12:36:03.765Z,993.03
2018-04-27T12:37:03.813Z,992.98
2018-04-27T12:38:03.722Z,993.02
2018-04-27T12:39:03.726Z,993.04
2018-04-27T12:40:03.786Z,993.03
2018-04-27T12:41:03.770Z,993.04
2018-04-27T12:42:03.852Z,993.03
2018-04-27T12:43:03.814Z,993.00
2018-04-27T12:44:03.809Z,992.97
2018-04-27T12:45:03.927Z,992.97